Time;durP1;ratioP1;P1;durP2;ratioP2;P2;SDS_P1;SDS_P2;PMS_P1;PMS_P2;Temp;Humidity;BMP_temperature;BMP_pressure;BME280_temperature;BME280_humidity;BME280_pressure;Samples;Min_cycle;Max_cycle;Signal;HPM_P1;HPM_P2
2023/05/29 00:01:49;;;;;;;0.10;0.10;;;;;;;18.08;nan;100573.44;5012329;28;20044;-77
2023/05/29 00:04:14;;;;;;;0.10;0.10;;;;;;;18.09;nan;100570.59;5029011;28;20033;-78
2023/05/29 00:06:40;;;;;;;0.10;0.10;;;;;;;18.06;nan;100570.13;5029421;28;20047;-77
2023/05/29 00:09:06;;;;;;;0.10;0.10;;;;;;;18.10;nan;100572.22;5029405;28;20363;-78
2023/05/29 00:11:31;;;;;;;0.10;0.10;;;;;;;18.08;nan;100574.25;5029121;28;20372;-77
2023/05/29 00:13:56;;;;;;;0.10;0.10;;;;;;;18.04;nan;100573.84;5030396;28;20133;-80
2023/05/29 00:16:23;;;;;;;0.10;0.10;;;;;;;18.08;nan;100579.63;5011781;28;21020;-77
2023/05/29 00:18:49;;;;;;;0.10;0.10;;;;;;;18.01;nan;100579.59;5011683;28;20038;-77
2023/05/29 00:21:15;;;;;;;0.10;0.10;;;;;;;17.93;nan;100571.75;5028530;28;20037;-79
2023/05/29 00:23:41;;;;;;;0.10;0.10;;;;;;;17.98;nan;100565.78;5029139;28;20030;-78
2023/05/29 00:26:06;;;;;;;0.10;0.10;;;;;;;17.96;nan;100568.66;5028553;28;20036;-79
2023/05/29 00:28:31;;;;;;;0.10;0.10;;;;;;;17.84;nan;100570.25;5039369;28;20042;-79
2023/05/29 00:30:57;;;;;;;0.10;0.10;;;;;;;17.84;nan;100562.22;5011769;28;20079;-78
2023/05/29 00:33:22;;;;;;;0.10;0.10;;;;;;;17.88;nan;100562.66;5029855;28;20056;-76
2023/05/29 00:35:47;;;;;;;0.10;0.10;;;;;;;17.81;nan;100570.66;5029638;28;20359;-80
2023/05/29 00:38:12;;;;;;;0.10;0.10;;;;;;;17.81;nan;100562.63;5029989;28;20049;-79
2023/05/29 00:40:39;;;;;;;0.10;0.10;;;;;;;17.93;nan;100566.38;5031862;28;20275;-77
2023/05/29 00:43:05;;;;;;;0.10;0.10;;;;;;;17.92;nan;100556.69;5020354;28;20029;-79
2023/05/29 00:45:30;;;;;;;0.10;0.10;;;;;;;17.91;nan;100554.25;5031110;28;20376;-79
2023/05/29 00:47:55;;;;;;;0.10;0.10;;;;;;;17.88;nan;100555.47;5034503;28;20276;-77
2023/05/29 00:50:21;;;;;;;0.10;0.10;;;;;;;17.83;nan;100555.25;5015510;28;20170;-80
2023/05/29 00:52:47;;;;;;;0.10;0.10;;;;;;;17.74;nan;100564.41;5016852;28;20121;-79
2023/05/29 00:55:13;;;;;;;0.05;0.05;;;;;;;17.67;nan;100561.69;5014870;28;20037;-80
2023/05/29 00:57:39;;;;;;;0.10;0.10;;;;;;;17.57;nan;100564.72;5036197;28;20548;-79
2023/05/29 01:00:12;;;;;;;0.08;0.08;;;;;;;17.49;nan;100556.03;5030339;28;20045;-79
2023/05/29 01:02:39;;;;;;;0.10;0.10;;;;;;;17.51;nan;100557.47;5032340;28;20095;-77
2023/05/29 01:05:05;;;;;;;0.10;0.10;;;;;;;17.39;nan;100561.72;5033830;28;20033;-78
2023/05/29 01:07:31;;;;;;;0.10;0.10;;;;;;;17.38;nan;100570.78;5033880;28;20372;-77
2023/05/29 01:09:56;;;;;;;0.10;0.10;;;;;;;17.37;nan;100569.13;5033514;28;20088;-78
2023/05/29 01:12:51;;;;;;;0.10;0.10;;;;;;;17.36;nan;100567.47;5031916;28;20045;-77
2023/05/29 01:15:26;;;;;;;0.10;0.10;;;;;;;17.34;nan;100564.16;5033350;28;20083;-78
2023/05/29 01:17:57;;;;;;;0.10;0.10;;;;;;;17.26;nan;100569.69;5032872;28;20124;-77
2023/05/29 01:20:41;;;;;;;0.10;0.10;;;;;;;17.31;nan;100561.91;5024837;28;22641;-78
2023/05/29 01:23:26;;;;;;;0.00;0.00;;;;;;;17.23;nan;100565.53;5030924;28;20041;-78
2023/05/29 01:26:00;;;;;;;0.00;0.00;;;;;;;17.12;nan;100566.88;5033776;28;20038;-78
2023/05/29 01:28:32;;;;;;;0.10;0.10;;;;;;;17.07;nan;100563.16;5024992;28;20396;-77
2023/05/29 01:31:00;;;;;;;0.10;0.10;;;;;;;16.92;nan;100558.72;5011977;28;20037;-78
2023/05/29 01:33:27;;;;;;;0.10;0.10;;;;;;;16.74;nan;100558.31;5030390;28;20538;-78
2023/05/29 01:35:52;;;;;;;0.10;0.10;;;;;;;16.66;nan;100561.94;5032908;28;20038;-78
2023/05/29 01:38:17;;;;;;;0.10;0.10;;;;;;;16.61;nan;100553.66;5031344;28;20029;-78
2023/05/29 01:40:43;;;;;;;0.10;0.10;;;;;;;16.58;nan;100559.38;5014931;28;20574;-80
2023/05/29 01:43:09;;;;;;;0.10;0.10;;;;;;;16.53;nan;100564.47;5032349;28;20063;-80
2023/05/29 01:45:36;;;;;;;0.10;0.10;;;;;;;16.45;nan;100564.63;5031214;28;20037;-78
2023/05/29 01:48:01;;;;;;;0.00;0.00;;;;;;;16.43;nan;100564.78;5030810;28;20034;-77
2023/05/29 01:50:28;;;;;;;0.10;0.10;;;;;;;16.50;nan;100564.88;5030927;28;20119;-78
2023/05/29 01:52:53;;;;;;;0.10;0.10;;;;;;;16.55;nan;100571.28;5028239;28;20386;-77
2023/05/29 01:55:18;;;;;;;0.10;0.10;;;;;;;16.60;nan;100569.88;5032180;28;20033;-78
2023/05/29 01:57:45;;;;;;;0.10;0.10;;;;;;;16.68;nan;100575.91;5032398;28;20038;-78
2023/05/29 02:00:11;;;;;;;0.10;0.10;;;;;;;16.67;nan;100573.44;5022472;28;20040;-78
2023/05/29 02:02:40;;;;;;;0.10;0.10;;;;;;;16.62;nan;100571.34;5031194;28;20046;-79
2023/05/29 02:05:07;;;;;;;0.10;0.10;;;;;;;16.53;nan;100578.66;5032217;28;20037;-78
2023/05/29 02:07:32;;;;;;;0.10;0.10;;;;;;;16.53;nan;100565.28;5031262;28;20021;-77
2023/05/29 02:09:57;;;;;;;0.10;0.10;;;;;;;16.56;nan;100569.44;5030113;28;20095;-78
2023/05/29 02:12:22;;;;;;;0.10;0.10;;;;;;;16.61;nan;100559.00;5029827;28;20045;-77
2023/05/29 02:14:48;;;;;;;0.10;0.10;;;;;;;16.68;nan;100567.09;5037694;28;20090;-77
2023/05/29 02:17:14;;;;;;;0.10;0.10;;;;;;;16.67;nan;100563.59;5034785;28;20044;-77
2023/05/29 02:19:40;;;;;;;0.10;0.10;;;;;;;16.63;nan;100570.31;5036312;28;20045;-77
2023/05/29 02:22:05;;;;;;;0.10;0.10;;;;;;;16.61;nan;100564.34;5032647;28;20095;-78
2023/05/29 02:24:30;;;;;;;0.10;0.10;;;;;;;16.64;nan;100565.84;5016948;28;20037;-77
2023/05/29 02:26:56;;;;;;;0.10;0.10;;;;;;;16.64;nan;100566.66;5011885;28;20073;-77
2023/05/29 02:29:21;;;;;;;0.10;0.10;;;;;;;16.57;nan;100571.09;5011043;28;20574;-77
2023/05/29 02:31:46;;;;;;;0.10;0.10;;;;;;;16.44;nan;100566.44;5004721;28;20037;-77
2023/05/29 02:34:12;;;;;;;0.10;0.10;;;;;;;16.38;nan;100569.06;5011474;28;20900;-77
2023/05/29 02:36:38;;;;;;;0.10;0.10;;;;;;;16.30;nan;100567.31;5011183;28;20092;-77
2023/05/29 02:39:05;;;;;;;0.10;0.10;;;;;;;16.25;nan;100567.03;5014988;28;20030;-78
2023/05/29 02:41:30;;;;;;;0.10;0.10;;;;;;;16.25;nan;100569.72;5022723;28;20111;-77
2023/05/29 02:43:55;;;;;;;0.10;0.10;;;;;;;16.30;nan;100570.81;5023426;28;20029;-77
2023/05/29 02:46:21;;;;;;;0.10;0.10;;;;;;;16.28;nan;100564.84;4999388;28;20044;-78
2023/05/29 02:48:47;;;;;;;0.10;0.10;;;;;;;16.32;nan;100568.75;5013189;28;20316;-77
2023/05/29 02:51:12;;;;;;;0.10;0.10;;;;;;;16.30;nan;100565.47;4997885;28;20092;-77
2023/05/29 02:53:37;;;;;;;0.10;0.10;;;;;;;16.28;nan;100569.31;5010511;28;20048;-78
2023/05/29 02:56:03;;;;;;;0.10;0.10;;;;;;;16.20;nan;100567.59;5011070;28;20057;-78
2023/05/29 02:58:28;;;;;;;0.10;0.10;;;;;;;16.11;nan;100566.06;4988145;28;20037;-77
2023/05/29 03:00:54;;;;;;;0.10;0.10;;;;;;;16.02;nan;100568.03;5009638;28;20038;-78
2023/05/29 03:03:19;;;;;;;0.10;0.10;;;;;;;15.99;nan;100565.72;5017480;28;20083;-78
2023/05/29 03:05:46;;;;;;;0.10;0.10;;;;;;;15.95;nan;100571.63;5010299;28;20118;-77
2023/05/29 03:08:12;;;;;;;0.10;0.10;;;;;;;15.88;nan;100569.69;4995947;28;20072;-78
2023/05/29 03:10:38;;;;;;;0.10;0.10;;;;;;;15.88;nan;100563.53;5018357;28;20042;-77
2023/05/29 03:13:03;;;;;;;0.10;0.10;;;;;;;15.82;nan;100569.59;5010350;28;20056;-77
2023/05/29 03:15:29;;;;;;;0.10;0.10;;;;;;;15.69;nan;100567.56;4990393;28;20101;-77
2023/05/29 03:17:54;;;;;;;0.10;0.10;;;;;;;15.61;nan;100572.97;5007808;28;20030;-77
2023/05/29 03:20:19;;;;;;;0.10;0.10;;;;;;;15.57;nan;100572.53;5007565;28;20053;-77
2023/05/29 03:22:45;;;;;;;0.10;0.10;;;;;;;15.45;nan;100566.81;5008207;28;20634;-77
2023/05/29 03:25:10;;;;;;;0.10;0.10;;;;;;;15.39;nan;100583.50;5006905;28;20439;-77
2023/05/29 03:27:35;;;;;;;0.10;0.10;;;;;;;15.31;nan;100575.63;5011860;28;20368;-77
2023/05/29 03:30:01;;;;;;;0.10;0.10;;;;;;;15.21;nan;100580.38;4994202;28;20048;-76
2023/05/29 03:32:26;;;;;;;0.10;0.10;;;;;;;15.12;nan;100581.47;5009874;28;20076;-79
2023/05/29 03:34:51;;;;;;;0.10;0.10;;;;;;;15.01;nan;100583.53;5004717;28;20030;-77
2023/05/29 03:37:17;;;;;;;0.10;0.10;;;;;;;14.96;nan;100585.09;5008722;28;20038;-77
2023/05/29 03:39:42;;;;;;;0.10;0.10;;;;;;;14.83;nan;100589.19;5012358;28;20066;-77
2023/05/29 03:42:07;;;;;;;0.10;0.10;;;;;;;14.70;nan;100593.44;5008095;28;20025;-77
2023/05/29 03:44:33;;;;;;;0.10;0.10;;;;;;;14.64;nan;100592.31;5011780;28;20044;-78
2023/05/29 03:46:58;;;;;;;0.13;0.13;;;;;;;14.53;nan;100592.69;4990239;28;20034;-77
2023/05/29 03:49:23;;;;;;;0.10;0.10;;;;;;;14.40;nan;100598.59;5011170;28;20045;-77
2023/05/29 03:51:49;;;;;;;0.10;0.10;;;;;;;14.28;nan;100599.94;5009359;28;20284;-77
2023/05/29 03:54:15;;;;;;;0.10;0.10;;;;;;;14.19;nan;100602.66;5012719;28;20025;-77
2023/05/29 03:56:40;;;;;;;0.10;0.10;;;;;;;14.11;nan;100604.53;5008315;28;20049;-77
2023/05/29 03:59:05;;;;;;;0.10;0.10;;;;;;;14.10;nan;100609.03;5008663;28;20034;-77
2023/05/29 04:01:31;;;;;;;0.10;0.10;;;;;;;14.07;nan;100606.72;5006771;28;20645;-77
2023/05/29 04:03:56;;;;;;;0.10;0.10;;;;;;;14.12;nan;100604.38;5008222;28;20030;-78
2023/05/29 04:06:22;;;;;;;0.10;0.10;;;;;;;14.21;nan;100607.81;5010533;28;20032;-77
2023/05/29 04:08:47;;;;;;;0.10;0.10;;;;;;;14.43;nan;100606.22;5008699;28;20049;-77
2023/05/29 04:11:13;;;;;;;0.20;0.20;;;;;;;14.54;nan;100607.66;5007156;28;20099;-77
2023/05/29 04:13:40;;;;;;;0.10;0.10;;;;;;;14.65;nan;100613.41;4999200;28;20053;-78
2023/05/29 04:16:05;;;;;;;0.15;0.15;;;;;;;14.86;nan;100614.63;5013689;28;20036;-78
2023/05/29 04:18:31;;;;;;;0.10;0.10;;;;;;;15.00;nan;100626.34;5012066;28;20042;-78
2023/05/29 04:20:56;;;;;;;0.10;0.10;;;;;;;15.01;nan;100627.97;5012126;28;20297;-77
2023/05/29 04:23:22;;;;;;;0.10;0.10;;;;;;;14.97;nan;100635.50;5014026;28;20042;-78
2023/05/29 04:25:50;;;;;;;0.10;0.10;;;;;;;15.04;nan;100644.44;5017026;28;20104;-78
2023/05/29 04:28:16;;;;;;;0.10;0.10;;;;;;;15.07;nan;100643.25;5014274;28;20038;-78
2023/05/29 04:30:42;;;;;;;0.10;0.10;;;;;;;15.07;nan;100649.41;5014314;28;20060;-78
2023/05/29 04:33:09;;;;;;;0.10;0.10;;;;;;;15.11;nan;100649.03;5014660;28;20034;-78
2023/05/29 04:35:35;;;;;;;0.10;0.10;;;;;;;15.15;nan;100651.16;4996871;28;20043;-79
2023/05/29 04:38:00;;;;;;;0.10;0.10;;;;;;;15.25;nan;100654.44;5024377;28;20087;-79
2023/05/29 04:40:26;;;;;;;0.10;0.10;;;;;;;15.28;nan;100655.91;5007194;28;20031;-77
2023/05/29 04:42:52;;;;;;;0.10;0.10;;;;;;;15.32;nan;100656.38;5013446;28;20034;-77
2023/05/29 04:45:20;;;;;;;0.10;0.10;;;;;;;15.29;nan;100662.88;5016756;28;20025;-77
2023/05/29 04:47:45;;;;;;;0.10;0.10;;;;;;;15.24;nan;100660.75;5019211;28;20037;-78
2023/05/29 04:50:16;;;;;;;0.10;0.10;;;;;;;15.21;nan;100665.63;5015546;28;20053;-77
2023/05/29 04:52:43;;;;;;;0.10;0.10;;;;;;;15.16;nan;100666.16;4999477;28;20068;-77
2023/05/29 04:55:08;;;;;;;0.10;0.10;;;;;;;15.21;nan;100673.63;5018628;28;21534;-78
2023/05/29 04:57:33;;;;;;;0.10;0.10;;;;;;;15.27;nan;100679.03;5012945;28;20042;-77
2023/05/29 04:59:59;;;;;;;0.10;0.10;;;;;;;15.33;nan;100679.34;5012819;28;20092;-78
2023/05/29 05:02:24;;;;;;;0.10;0.10;;;;;;;15.36;nan;100686.97;4995795;28;20038;-77
2023/05/29 05:04:50;;;;;;;0.10;0.10;;;;;;;15.48;nan;100689.03;5011709;28;20044;-77
2023/05/29 05:07:15;;;;;;;0.10;0.10;;;;;;;15.56;nan;100695.28;5012953;28;20084;-77
2023/05/29 05:09:41;;;;;;;0.10;0.10;;;;;;;15.62;nan;100694.59;5002689;28;20044;-78
2023/05/29 05:12:07;;;;;;;0.10;0.10;;;;;;;15.67;nan;100701.03;5007499;28;20038;-78
2023/05/29 05:14:32;;;;;;;0.10;0.10;;;;;;;15.73;nan;100696.00;5012326;28;20034;-78
2023/05/29 05:16:57;;;;;;;0.10;0.10;;;;;;;15.75;nan;100696.66;5013614;28;20117;-78
2023/05/29 05:19:22;;;;;;;0.10;0.10;;;;;;;15.81;nan;100696.75;5017148;28;20026;-78
2023/05/29 05:21:48;;;;;;;0.10;0.10;;;;;;;15.84;nan;100700.91;5014554;28;20117;-79
2023/05/29 05:24:13;;;;;;;0.10;0.10;;;;;;;15.89;nan;100712.66;5015259;28;20283;-78
2023/05/29 05:26:38;;;;;;;0.10;0.10;;;;;;;15.97;nan;100703.78;5018680;28;20044;-78
2023/05/29 05:29:03;;;;;;;0.10;0.10;;;;;;;16.04;nan;100707.38;5013688;28;20689;-77
2023/05/29 05:31:29;;;;;;;0.10;0.10;;;;;;;16.13;nan;100706.25;4996431;28;20033;-78
2023/05/29 05:33:54;;;;;;;0.10;0.10;;;;;;;16.34;nan;100705.50;4996409;28;20034;-79
2023/05/29 05:36:20;;;;;;;0.10;0.10;;;;;;;16.54;nan;100700.44;5015693;28;20109;-79
2023/05/29 05:38:45;;;;;;;0.10;0.10;;;;;;;16.79;nan;100707.31;5014594;28;20269;-79
2023/05/29 05:41:11;;;;;;;0.10;0.10;;;;;;;17.39;nan;100706.06;5013965;28;20397;-79
2023/05/29 05:43:36;;;;;;;0.10;0.10;;;;;;;17.84;nan;100706.69;5014067;28;20422;-78
2023/05/29 05:46:02;;;;;;;0.10;0.10;;;;;;;18.29;nan;100717.06;5014264;28;20057;-77
2023/05/29 05:48:27;;;;;;;0.10;0.10;;;;;;;18.74;nan;100718.28;5017162;28;20033;-80
2023/05/29 05:50:52;;;;;;;0.10;0.10;;;;;;;19.24;nan;100715.34;5002366;28;20049;-79
2023/05/29 05:53:17;;;;;;;0.10;0.10;;;;;;;19.44;nan;100712.66;4998091;28;20407;-78
2023/05/29 05:55:43;;;;;;;0.10;0.10;;;;;;;19.66;nan;100719.50;5015429;28;20041;-78
2023/05/29 05:58:08;;;;;;;0.10;0.10;;;;;;;20.11;nan;100716.97;5013930;28;20058;-79
2023/05/29 06:00:33;;;;;;;0.10;0.10;;;;;;;20.42;nan;100720.00;5013497;28;20041;-79
2023/05/29 06:03:00;;;;;;;0.10;0.10;;;;;;;20.69;nan;100712.66;5020154;28;20120;-79
2023/05/29 06:05:25;;;;;;;0.00;0.00;;;;;;;21.18;nan;100719.22;5033356;28;21610;-79
2023/05/29 06:07:50;;;;;;;0.08;0.08;;;;;;;21.60;nan;100712.31;5029709;28;20037;-79
2023/05/29 06:10:16;;;;;;;0.10;0.10;;;;;;;22.00;nan;100722.72;5029436;28;20049;-80
2023/05/29 06:12:41;;;;;;;0.10;0.10;;;;;;;22.44;nan;100718.13;5012483;28;20037;-79
2023/05/29 06:15:07;;;;;;;0.00;0.00;;;;;;;22.41;nan;100723.16;5031223;28;20338;-78
2023/05/29 06:17:32;;;;;;;0.00;0.00;;;;;;;22.52;nan;100730.47;5031956;28;21105;-80
2023/05/29 06:19:57;;;;;;;0.00;0.00;;;;;;;22.48;nan;100734.69;5032834;28;20408;-79
2023/05/29 06:22:23;;;;;;;0.00;0.00;;;;;;;22.59;nan;100728.50;5029881;28;20056;-78
2023/05/29 06:24:48;;;;;;;0.00;0.00;;;;;;;22.91;nan;100728.31;5036047;28;20033;-78
2023/05/29 06:27:13;;;;;;;0.00;0.00;;;;;;;22.94;nan;100727.03;5038178;28;20724;-79
2023/05/29 06:29:39;;;;;;;0.00;0.00;;;;;;;23.13;nan;100734.06;5044784;28;20072;-79
2023/05/29 06:32:05;;;;;;;0.00;0.00;;;;;;;23.23;nan;100736.19;5045320;28;20162;-79
2023/05/29 06:34:30;;;;;;;0.00;0.00;;;;;;;23.45;nan;100729.19;5043333;28;20057;-79
2023/05/29 06:36:55;;;;;;;0.00;0.00;;;;;;;23.35;nan;100739.75;5042694;28;20033;-79
2023/05/29 06:39:21;;;;;;;0.00;0.00;;;;;;;23.84;nan;100726.13;5017616;28;20398;-78
2023/05/29 06:41:46;;;;;;;0.00;0.00;;;;;;;24.19;nan;100731.47;5035609;28;20288;-78
2023/05/29 06:44:11;;;;;;;0.00;0.00;;;;;;;24.34;nan;100725.59;5042205;28;20042;-79
2023/05/29 06:46:37;;;;;;;0.00;0.00;;;;;;;24.65;nan;100728.97;5017042;28;20041;-79
2023/05/29 06:49:02;;;;;;;0.00;0.00;;;;;;;24.63;nan;100731.91;5034005;28;20106;-80
2023/05/29 06:51:27;;;;;;;0.00;0.00;;;;;;;24.37;nan;100728.63;5038968;28;20656;-79
2023/05/29 06:53:52;;;;;;;0.00;0.00;;;;;;;24.13;nan;100727.03;5041605;28;20148;-79
2023/05/29 06:56:18;;;;;;;0.00;0.00;;;;;;;23.95;nan;100730.69;5039961;28;20275;-78
2023/05/29 06:58:45;;;;;;;0.00;0.00;;;;;;;23.77;nan;100728.94;5047788;28;20363;-78
2023/05/29 07:01:10;;;;;;;0.00;0.00;;;;;;;23.85;nan;100741.25;5033961;28;20069;-78
2023/05/29 07:03:36;;;;;;;0.00;0.00;;;;;;;23.88;nan;100736.22;5039199;28;20805;-78
2023/05/29 07:06:02;;;;;;;0.00;0.00;;;;;;;23.97;nan;100731.25;5033654;28;20033;-79
2023/05/29 07:08:27;;;;;;;0.00;0.00;;;;;;;23.94;nan;100739.84;5018515;28;20261;-79
2023/05/29 07:10:52;;;;;;;0.00;0.00;;;;;;;23.74;nan;100743.72;5034424;28;20080;-80
2023/05/29 07:13:18;;;;;;;0.00;0.00;;;;;;;24.17;nan;100744.44;5032292;28;20041;-80
2023/05/29 07:15:48;;;;;;;0.00;0.00;;;;;;;24.73;nan;100748.31;5034435;28;20510;-79
2023/05/29 07:18:13;;;;;;;0.00;0.00;;;;;;;24.80;nan;100734.66;5033943;28;20053;-80
2023/05/29 07:20:38;;;;;;;0.00;0.00;;;;;;;24.99;nan;100738.00;5017608;28;20164;-80
2023/05/29 07:23:04;;;;;;;0.00;0.00;;;;;;;24.97;nan;100745.53;5029335;28;20291;-81
2023/05/29 07:25:30;;;;;;;0.00;0.00;;;;;;;25.28;nan;100740.69;5033113;28;20037;-78
2023/05/29 07:27:55;;;;;;;0.00;0.00;;;;;;;25.55;nan;100743.56;5039825;28;20033;-79
2023/05/29 07:30:21;;;;;;;0.00;0.00;;;;;;;26.00;nan;100748.91;5033899;28;20045;-79
2023/05/29 07:32:46;;;;;;;0.00;0.00;;;;;;;26.35;nan;100745.06;5015477;28;20033;-79
2023/05/29 07:35:11;;;;;;;0.00;0.00;;;;;;;26.37;nan;100752.94;5031794;28;20049;-79
2023/05/29 07:37:37;;;;;;;0.00;0.00;;;;;;;26.63;nan;100751.41;5039906;28;20052;-79
2023/05/29 07:40:05;;;;;;;0.00;0.00;;;;;;;26.46;nan;100748.72;5032199;28;20060;-79
2023/05/29 07:42:31;;;;;;;0.00;0.00;;;;;;;26.89;nan;100755.22;5030730;28;20029;-79
2023/05/29 07:44:56;;;;;;;0.00;0.00;;;;;;;27.48;nan;100751.72;5031587;28;20034;-79
2023/05/29 07:47:21;;;;;;;0.00;0.00;;;;;;;27.72;nan;100755.75;5031358;28;20741;-80
2023/05/29 07:49:47;;;;;;;0.00;0.00;;;;;;;28.29;nan;100746.06;5013806;28;20048;-79
2023/05/29 07:52:12;;;;;;;0.00;0.00;;;;;;;28.11;nan;100750.03;5041578;28;20268;-78
2023/05/29 07:54:37;;;;;;;0.00;0.00;;;;;;;28.23;nan;100749.03;5035959;28;20542;-79
2023/05/29 07:57:03;;;;;;;0.00;0.00;;;;;;;28.54;nan;100745.38;5041528;28;20354;-79
2023/05/29 07:59:29;;;;;;;0.00;0.00;;;;;;;28.40;nan;100754.25;5033229;28;20072;-79
2023/05/29 08:01:57;;;;;;;0.00;0.00;;;;;;;28.34;nan;100751.53;5045934;28;20033;-80
2023/05/29 08:04:23;;;;;;;0.00;0.00;;;;;;;28.77;nan;100757.72;5035005;28;20041;-79
2023/05/29 08:06:49;;;;;;;0.00;0.00;;;;;;;29.19;nan;100750.47;5022503;28;20451;-78
2023/05/29 08:09:14;;;;;;;0.00;0.00;;;;;;;28.99;nan;100759.41;5037597;28;20053;-80
2023/05/29 08:11:39;;;;;;;0.00;0.00;;;;;;;28.88;nan;100752.28;5034409;28;20283;-80
2023/05/29 08:14:05;;;;;;;0.00;0.00;;;;;;;29.46;nan;100749.38;5044990;28;20037;-80
2023/05/29 08:16:30;;;;;;;0.00;0.00;;;;;;;29.16;nan;100748.28;5037169;28;20030;-81
2023/05/29 08:18:55;;;;;;;0.00;0.00;;;;;;;28.67;nan;100748.69;5043108;28;20040;-80
2023/05/29 08:21:21;;;;;;;0.00;0.00;;;;;;;28.44;nan;100753.47;5042389;28;20029;-81
2023/05/29 08:23:46;;;;;;;0.00;0.00;;;;;;;28.44;nan;100752.66;5014428;28;20033;-80
2023/05/29 08:26:13;;;;;;;0.00;0.00;;;;;;;28.19;nan;100748.72;5023340;28;20037;-81
2023/05/29 08:28:38;;;;;;;0.00;0.00;;;;;;;28.78;nan;100753.06;5033775;28;20286;-80
2023/05/29 08:31:03;;;;;;;0.00;0.00;;;;;;;29.04;nan;100744.97;5016885;28;20466;-80
2023/05/29 08:33:30;;;;;;;0.00;0.00;;;;;;;28.71;nan;100752.50;5037803;28;20034;-80
2023/05/29 08:35:57;;;;;;;0.00;0.00;;;;;;;29.27;nan;100752.66;5038892;28;20346;-80
2023/05/29 08:38:25;;;;;;;0.00;0.00;;;;;;;28.96;nan;100747.13;5030148;28;20535;-80
2023/05/29 08:40:50;;;;;;;0.00;0.00;;;;;;;28.99;nan;100740.34;5017982;28;20040;-80
2023/05/29 08:43:20;;;;;;;0.00;0.00;;;;;;;29.77;nan;100736.56;5016849;28;20041;-80
2023/05/29 08:45:47;;;;;;;0.00;0.00;;;;;;;30.08;nan;100741.97;5016709;28;20056;-80
2023/05/29 08:48:15;;;;;;;0.00;0.00;;;;;;;30.12;nan;100735.69;5018088;28;20029;-80
2023/05/29 08:50:48;;;;;;;0.00;0.00;;;;;;;30.39;nan;100731.78;5033422;28;20113;-80
2023/05/29 08:53:15;;;;;;;0.00;0.00;;;;;;;30.30;nan;100734.31;5036667;28;20671;-80
2023/05/29 08:55:40;;;;;;;0.00;0.00;;;;;;;30.05;nan;100737.88;5030877;28;20053;-80
2023/05/29 08:58:06;;;;;;;0.00;0.00;;;;;;;30.23;nan;100731.03;5032815;28;20049;-80
2023/05/29 09:00:32;;;;;;;0.00;0.00;;;;;;;30.55;nan;100732.53;5032811;28;20056;-81
2023/05/29 09:02:59;;;;;;;0.00;0.00;;;;;;;30.53;nan;100727.34;5016903;28;20033;-80
2023/05/29 09:05:27;;;;;;;0.00;0.00;;;;;;;31.18;nan;100738.19;5035870;28;20038;-81
2023/05/29 09:07:53;;;;;;;0.00;0.00;;;;;;;31.64;nan;100742.50;5035318;28;20756;-80
2023/05/29 09:10:20;;;;;;;0.00;0.00;;;;;;;31.70;nan;100738.59;5033964;28;20439;-81
2023/05/29 09:12:46;;;;;;;0.00;0.00;;;;;;;31.89;nan;100742.25;5034776;28;20072;-80
2023/05/29 09:15:19;;;;;;;0.00;0.00;;;;;;;31.90;nan;100749.34;5035797;28;20033;-81
2023/05/29 09:17:56;;;;;;;0.00;0.00;;;;;;;31.57;nan;100742.81;5032156;28;20090;-81
2023/05/29 09:20:23;;;;;;;0.00;0.00;;;;;;;32.30;nan;100749.22;5032920;28;20033;-81
2023/05/29 09:22:56;;;;;;;0.00;0.00;;;;;;;32.77;nan;100742.88;5034226;28;20030;-80
2023/05/29 09:25:30;;;;;;;0.00;0.00;;;;;;;32.17;nan;100748.78;5037909;28;20085;-81
2023/05/29 09:28:07;;;;;;;0.00;0.00;;;;;;;32.71;nan;100745.97;5044434;28;20037;-80
2023/05/29 09:30:45;;;;;;;0.00;0.00;;;;;;;32.61;nan;100741.44;5034550;28;20087;-79
2023/05/29 09:33:12;;;;;;;0.00;0.00;;;;;;;32.23;nan;100735.88;5038465;28;20550;-81
2023/05/29 09:35:39;;;;;;;0.00;0.00;;;;;;;32.47;nan;100737.78;5018092;28;20041;-81
2023/05/29 09:38:06;;;;;;;0.00;0.00;;;;;;;32.67;nan;100734.78;5034205;28;20033;-81
2023/05/29 09:40:32;;;;;;;0.00;0.00;;;;;;;32.84;nan;100738.94;5019857;28;20064;-80
2023/05/29 09:43:07;;;;;;;0.00;0.00;;;;;;;33.43;nan;100741.03;5039533;28;20037;-81
2023/05/29 09:45:32;;;;;;;0.00;0.00;;;;;;;33.07;nan;100740.00;5031787;28;20049;-81
2023/05/29 09:47:58;;;;;;;0.00;0.00;;;;;;;33.59;nan;100746.28;5037973;28;20089;-80
2023/05/29 09:50:28;;;;;;;0.00;0.00;;;;;;;32.75;nan;100745.09;5037342;28;20056;-82
2023/05/29 09:52:54;;;;;;;0.00;0.00;;;;;;;33.01;nan;100739.22;5036455;28;20403;-81
2023/05/29 09:55:21;;;;;;;0.00;0.00;;;;;;;32.68;nan;100738.31;5037547;28;20079;-81
2023/05/29 09:57:48;;;;;;;0.00;0.00;;;;;;;33.48;nan;100734.66;5036859;28;20044;-81
2023/05/29 10:00:13;;;;;;;0.00;0.00;;;;;;;33.89;nan;100739.41;5035664;28;20124;-81
2023/05/29 10:02:40;;;;;;;0.00;0.00;;;;;;;34.24;nan;100742.63;5034553;28;20139;-81
2023/05/29 10:05:07;;;;;;;0.00;0.00;;;;;;;34.11;nan;100743.41;5032910;28;20591;-81
2023/05/29 10:07:36;;;;;;;0.00;0.00;;;;;;;33.79;nan;100734.13;5028702;28;20112;-81
2023/05/29 10:10:07;;;;;;;0.00;0.00;;;;;;;33.58;nan;100737.22;5035703;28;20374;-81
2023/05/29 10:12:36;;;;;;;0.00;0.00;;;;;;;33.46;nan;100741.56;5016413;28;20121;-81
2023/05/29 10:15:02;;;;;;;0.00;0.00;;;;;;;34.41;nan;100739.25;5016758;28;20091;-81
2023/05/29 10:17:36;;;;;;;0.00;0.00;;;;;;;34.40;nan;100737.63;5016316;28;20637;-81
2023/05/29 10:20:06;;;;;;;0.00;0.00;;;;;;;35.11;nan;100737.97;5016763;28;20509;-81
2023/05/29 10:22:32;;;;;;;0.00;0.00;;;;;;;35.51;nan;100741.63;5014668;28;20048;-81
2023/05/29 10:24:57;;;;;;;0.00;0.00;;;;;;;35.98;nan;100743.22;5015911;28;20093;-81
2023/05/29 10:27:23;;;;;;;0.00;0.00;;;;;;;36.10;nan;100738.75;5014659;28;20030;-81
2023/05/29 10:29:55;;;;;;;0.00;0.00;;;;;;;35.74;nan;100741.66;5013115;28;20060;-80
2023/05/29 10:32:32;;;;;;;0.00;0.00;;;;;;;35.99;nan;100753.06;5011210;28;20133;-80
2023/05/29 10:35:22;;;;;;;0.00;0.00;;;;;;;35.19;nan;100740.00;5013851;28;20254;-80
2023/05/29 10:38:03;;;;;;;0.00;0.00;;;;;;;35.70;nan;100735.94;5023690;28;20042;-81
2023/05/29 10:40:29;;;;;;;0.00;0.00;;;;;;;36.22;nan;100732.63;5005811;28;20038;-80
2023/05/29 10:42:58;;;;;;;0.00;0.00;;;;;;;36.58;nan;100725.28;5013349;28;20121;-81
2023/05/29 10:45:29;;;;;;;0.00;0.00;;;;;;;36.57;nan;100732.69;5011745;28;20054;-79
2023/05/29 10:47:55;;;;;;;0.00;0.00;;;;;;;36.71;nan;100727.06;5012334;28;20044;-80
2023/05/29 10:50:46;;;;;;;0.00;0.00;;;;;;;36.56;nan;100728.31;5012581;28;20309;-80
2023/05/29 10:53:18;;;;;;;0.00;0.00;;;;;;;36.06;nan;100723.16;5013241;28;20042;-80
2023/05/29 10:55:45;;;;;;;0.00;0.00;;;;;;;36.20;nan;100718.34;5023522;28;20502;-80
2023/05/29 10:58:18;;;;;;;0.00;0.00;;;;;;;36.51;nan;100722.97;5012015;28;20034;-80
2023/05/29 11:00:46;;;;;;;0.00;0.00;;;;;;;36.94;nan;100719.44;5011615;28;20045;-80
2023/05/29 11:03:14;;;;;;;0.00;0.00;;;;;;;36.10;nan;100724.16;5009335;28;20056;-81
2023/05/29 11:06:01;;;;;;;0.00;0.00;;;;;;;36.10;nan;100713.16;5015601;28;20088;-80
2023/05/29 11:08:46;;;;;;;0.00;0.00;;;;;;;36.53;nan;100727.00;5016116;28;20045;-81
2023/05/29 11:11:13;;;;;;;0.00;0.00;;;;;;;35.94;nan;100718.25;5019761;28;20049;-81
2023/05/29 11:13:40;;;;;;;0.00;0.00;;;;;;;35.51;nan;100719.63;5018451;28;20040;-81
2023/05/29 11:16:13;;;;;;;0.00;0.00;;;;;;;36.46;nan;100720.34;5015265;28;20041;-81
2023/05/29 11:18:40;;;;;;;0.00;0.00;;;;;;;35.73;nan;100721.59;5009812;28;20041;-81
2023/05/29 11:21:24;;;;;;;0.00;0.00;;;;;;;35.69;nan;100723.34;5016145;28;20438;-80
2023/05/29 11:23:52;;;;;;;0.00;0.00;;;;;;;36.30;nan;100722.75;5014797;28;20037;-81
2023/05/29 11:26:19;;;;;;;0.00;0.00;;;;;;;37.07;nan;100717.69;5013238;28;20108;-81
2023/05/29 11:28:46;;;;;;;0.00;0.00;;;;;;;38.29;nan;100715.31;5013448;28;20037;-81
2023/05/29 11:31:12;;;;;;;0.00;0.00;;;;;;;38.17;nan;100715.25;5017223;28;20037;-81
2023/05/29 11:33:41;;;;;;;0.00;0.00;;;;;;;37.97;nan;100714.00;5019069;28;20034;-78
2023/05/29 11:36:08;;;;;;;0.00;0.00;;;;;;;37.01;nan;100724.47;5017993;28;20041;-81
2023/05/29 11:38:34;;;;;;;0.00;0.00;;;;;;;37.83;nan;100730.81;5012337;28;20034;-81
2023/05/29 11:41:01;;;;;;;0.00;0.00;;;;;;;37.86;nan;100719.09;5014027;28;20402;-81